sensor_id;sensor_type;location;lat;lon;timestamp;temperature;humidity
10911;DHT22;5508;49.150;11.030;2022-07-23T00:00:03;19.90;67.40
10911;DHT22;5508;49.150;11.030;2022-07-23T00:03:04;19.90;67.40
10911;DHT22;5508;49.150;11.030;2022-07-23T00:06:04;19.80;67.90
10911;DHT22;5508;49.150;11.030;2022-07-23T00:09:05;19.70;67.40
10911;DHT22;5508;49.150;11.030;2022-07-23T00:12:05;19.70;68.10
10911;DHT22;5508;49.150;11.030;2022-07-23T00:15:07;19.70;69.30
10911;DHT22;5508;49.150;11.030;2022-07-23T00:18:07;19.60;69.00
10911;DHT22;5508;49.150;11.030;2022-07-23T00:21:08;19.70;68.60
10911;DHT22;5508;49.150;11.030;2022-07-23T00:24:09;19.80;67.80
10911;DHT22;5508;49.150;11.030;2022-07-23T00:27:09;19.70;68.50
10911;DHT22;5508;49.150;11.030;2022-07-23T00:30:10;19.70;68.00
10911;DHT22;5508;49.150;11.030;2022-07-23T00:33:11;19.70;69.30
10911;DHT22;5508;49.150;11.030;2022-07-23T00:36:12;19.60;69.10
10911;DHT22;5508;49.150;11.030;2022-07-23T00:39:12;19.60;68.90
10911;DHT22;5508;49.150;11.030;2022-07-23T00:42:13;19.70;68.60
10911;DHT22;5508;49.150;11.030;2022-07-23T00:45:13;19.70;69.00
10911;DHT22;5508;49.150;11.030;2022-07-23T00:48:14;19.70;67.60
10911;DHT22;5508;49.150;11.030;2022-07-23T00:51:16;19.70;67.70
10911;DHT22;5508;49.150;11.030;2022-07-23T00:54:17;19.80;69.30
10911;DHT22;5508;49.150;11.030;2022-07-23T00:57:18;19.80;68.00
10911;DHT22;5508;49.150;11.030;2022-07-23T01:00:19;19.80;68.90
10911;DHT22;5508;49.150;11.030;2022-07-23T01:03:19;19.70;68.40
10911;DHT22;5508;49.150;11.030;2022-07-23T01:06:20;19.80;66.80
10911;DHT22;5508;49.150;11.030;2022-07-23T01:09:20;19.90;66.70
10911;DHT22;5508;49.150;11.030;2022-07-23T01:12:21;20.00;65.40
10911;DHT22;5508;49.150;11.030;2022-07-23T01:15:22;20.10;65.50
10911;DHT22;5508;49.150;11.030;2022-07-23T01:18:23;20.10;65.10
10911;DHT22;5508;49.150;11.030;2022-07-23T01:21:24;20.20;65.40
10911;DHT22;5508;49.150;11.030;2022-07-23T01:24:24;20.20;65.10
10911;DHT22;5508;49.150;11.030;2022-07-23T01:27:25;20.20;64.80
10911;DHT22;5508;49.150;11.030;2022-07-23T01:30:26;20.30;64.50
10911;DHT22;5508;49.150;11.030;2022-07-23T01:33:26;20.20;64.70
10911;DHT22;5508;49.150;11.030;2022-07-23T01:36:27;20.10;65.00
10911;DHT22;5508;49.150;11.030;2022-07-23T01:39:27;20.10;65.40
10911;DHT22;5508;49.150;11.030;2022-07-23T01:42:28;20.10;64.80
10911;DHT22;5508;49.150;11.030;2022-07-23T01:45:28;20.20;64.20
10911;DHT22;5508;49.150;11.030;2022-07-23T01:48:29;20.20;64.60
10911;DHT22;5508;49.150;11.030;2022-07-23T01:51:30;20.20;64.40
10911;DHT22;5508;49.150;11.030;2022-07-23T01:54:33;20.30;64.20
10911;DHT22;5508;49.150;11.030;2022-07-23T01:57:33;20.30;64.30
10911;DHT22;5508;49.150;11.030;2022-07-23T02:00:34;20.30;64.20
10911;DHT22;5508;49.150;11.030;2022-07-23T02:03:35;20.30;64.40
10911;DHT22;5508;49.150;11.030;2022-07-23T02:06:35;20.20;64.40
10911;DHT22;5508;49.150;11.030;2022-07-23T02:09:36;20.20;64.30
10911;DHT22;5508;49.150;11.030;2022-07-23T02:12:36;20.30;64.60
10911;DHT22;5508;49.150;11.030;2022-07-23T02:15:37;20.20;64.80
10911;DHT22;5508;49.150;11.030;2022-07-23T02:18:38;20.20;64.30
10911;DHT22;5508;49.150;11.030;2022-07-23T02:21:38;20.10;64.80
10911;DHT22;5508;49.150;11.030;2022-07-23T02:24:39;20.20;64.30
10911;DHT22;5508;49.150;11.030;2022-07-23T02:27:40;20.20;64.40
10911;DHT22;5508;49.150;11.030;2022-07-23T02:30:40;20.30;64.00
10911;DHT22;5508;49.150;11.030;2022-07-23T02:33:41;20.30;64.30
10911;DHT22;5508;49.150;11.030;2022-07-23T02:36:41;20.30;63.90
10911;DHT22;5508;49.150;11.030;2022-07-23T02:39:42;20.40;64.30
10911;DHT22;5508;49.150;11.030;2022-07-23T02:42:43;20.40;63.70
10911;DHT22;5508;49.150;11.030;2022-07-23T02:45:43;20.50;64.10
10911;DHT22;5508;49.150;11.030;2022-07-23T02:48:44;20.50;64.50
10911;DHT22;5508;49.150;11.030;2022-07-23T02:51:44;20.50;64.60
10911;DHT22;5508;49.150;11.030;2022-07-23T02:54:45;20.50;63.40
10911;DHT22;5508;49.150;11.030;2022-07-23T02:57:45;20.60;63.50
10911;DHT22;5508;49.150;11.030;2022-07-23T03:00:46;20.60;62.70
10911;DHT22;5508;49.150;11.030;2022-07-23T03:03:47;20.60;63.10
10911;DHT22;5508;49.150;11.030;2022-07-23T03:06:47;20.70;62.90
10911;DHT22;5508;49.150;11.030;2022-07-23T03:09:48;20.70;62.90
10911;DHT22;5508;49.150;11.030;2022-07-23T03:12:48;20.70;63.10
10911;DHT22;5508;49.150;11.030;2022-07-23T03:15:49;20.80;62.80
10911;DHT22;5508;49.150;11.030;2022-07-23T03:18:49;20.80;62.50
10911;DHT22;5508;49.150;11.030;2022-07-23T03:21:50;20.80;62.50
10911;DHT22;5508;49.150;11.030;2022-07-23T03:24:51;20.80;62.50
10911;DHT22;5508;49.150;11.030;2022-07-23T03:27:54;20.80;62.00
10911;DHT22;5508;49.150;11.030;2022-07-23T03:30:55;20.80;61.30
10911;DHT22;5508;49.150;11.030;2022-07-23T03:33:55;20.90;60.60
10911;DHT22;5508;49.150;11.030;2022-07-23T03:36:56;21.00;60.90
10911;DHT22;5508;49.150;11.030;2022-07-23T03:39:56;21.00;59.90
10911;DHT22;5508;49.150;11.030;2022-07-23T03:42:57;21.10;58.90
10911;DHT22;5508;49.150;11.030;2022-07-23T03:45:58;21.20;58.80
10911;DHT22;5508;49.150;11.030;2022-07-23T03:48:58;21.10;59.30
10911;DHT22;5508;49.150;11.030;2022-07-23T03:51:59;21.10;59.30
10911;DHT22;5508;49.150;11.030;2022-07-23T03:55:00;21.00;59.50
10911;DHT22;5508;49.150;11.030;2022-07-23T03:58:01;20.90;59.70
10911;DHT22;5508;49.150;11.030;2022-07-23T04:01:01;20.80;60.50
10911;DHT22;5508;49.150;11.030;2022-07-23T04:04:02;20.70;61.00
10911;DHT22;5508;49.150;11.030;2022-07-23T04:07:03;20.60;61.20
10911;DHT22;5508;49.150;11.030;2022-07-23T04:10:04;20.60;61.10
10911;DHT22;5508;49.150;11.030;2022-07-23T04:13:04;20.60;61.40
10911;DHT22;5508;49.150;11.030;2022-07-23T04:16:08;20.60;62.20
10911;DHT22;5508;49.150;11.030;2022-07-23T04:19:08;20.70;62.10
10911;DHT22;5508;49.150;11.030;2022-07-23T04:22:11;20.60;62.80
10911;DHT22;5508;49.150;11.030;2022-07-23T04:25:11;20.60;63.50
10911;DHT22;5508;49.150;11.030;2022-07-23T04:28:13;20.50;64.30
10911;DHT22;5508;49.150;11.030;2022-07-23T04:31:14;20.50;64.60
10911;DHT22;5508;49.150;11.030;2022-07-23T04:34:15;20.50;65.30
10911;DHT22;5508;49.150;11.030;2022-07-23T04:37:15;20.50;66.50
10911;DHT22;5508;49.150;11.030;2022-07-23T04:40:16;20.50;67.10
10911;DHT22;5508;49.150;11.030;2022-07-23T04:43:16;20.50;67.60
10911;DHT22;5508;49.150;11.030;2022-07-23T04:46:17;20.50;67.70
10911;DHT22;5508;49.150;11.030;2022-07-23T04:49:17;20.50;68.70
10911;DHT22;5508;49.150;11.030;2022-07-23T04:52:18;20.50;68.10
10911;DHT22;5508;49.150;11.030;2022-07-23T04:55:18;20.40;68.60
10911;DHT22;5508;49.150;11.030;2022-07-23T04:58:19;20.50;68.60
10911;DHT22;5508;49.150;11.030;2022-07-23T05:01:20;20.40;69.30
10911;DHT22;5508;49.150;11.030;2022-07-23T05:04:21;20.40;69.70
10911;DHT22;5508;49.150;11.030;2022-07-23T05:07:21;20.40;70.30
10911;DHT22;5508;49.150;11.030;2022-07-23T05:10:22;20.40;69.90
10911;DHT22;5508;49.150;11.030;2022-07-23T05:13:22;20.30;71.00
10911;DHT22;5508;49.150;11.030;2022-07-23T05:16:23;20.30;71.20
10911;DHT22;5508;49.150;11.030;2022-07-23T05:19:23;20.40;70.50
10911;DHT22;5508;49.150;11.030;2022-07-23T05:22:24;20.50;70.50
10911;DHT22;5508;49.150;11.030;2022-07-23T05:25:25;20.70;69.00
10911;DHT22;5508;49.150;11.030;2022-07-23T05:28:25;20.80;68.30
10911;DHT22;5508;49.150;11.030;2022-07-23T05:31:26;21.00;68.10
10911;DHT22;5508;49.150;11.030;2022-07-23T05:34:26;21.00;67.70
10911;DHT22;5508;49.150;11.030;2022-07-23T05:37:27;21.20;67.00
10911;DHT22;5508;49.150;11.030;2022-07-23T05:40:27;21.20;67.30
10911;DHT22;5508;49.150;11.030;2022-07-23T05:43:28;21.30;67.20
10911;DHT22;5508;49.150;11.030;2022-07-23T05:46:29;21.30;67.10
10911;DHT22;5508;49.150;11.030;2022-07-23T05:49:30;21.40;66.80
10911;DHT22;5508;49.150;11.030;2022-07-23T05:52:30;21.50;66.20
10911;DHT22;5508;49.150;11.030;2022-07-23T05:55:31;21.60;65.80
10911;DHT22;5508;49.150;11.030;2022-07-23T05:58:31;21.60;65.80
10911;DHT22;5508;49.150;11.030;2022-07-23T06:01:32;21.60;66.10
10911;DHT22;5508;49.150;11.030;2022-07-23T06:04:33;21.80;65.10
10911;DHT22;5508;49.150;11.030;2022-07-23T06:07:34;22.10;64.40
10911;DHT22;5508;49.150;11.030;2022-07-23T06:10:34;22.30;63.90
10911;DHT22;5508;49.150;11.030;2022-07-23T06:13:35;22.50;63.00
10911;DHT22;5508;49.150;11.030;2022-07-23T06:16:36;22.60;62.30
10911;DHT22;5508;49.150;11.030;2022-07-23T06:19:36;22.70;62.40
10911;DHT22;5508;49.150;11.030;2022-07-23T06:22:37;22.70;62.30
10911;DHT22;5508;49.150;11.030;2022-07-23T06:25:38;22.80;61.60
10911;DHT22;5508;49.150;11.030;2022-07-23T06:28:39;22.80;61.30
10911;DHT22;5508;49.150;11.030;2022-07-23T06:31:39;22.60;62.30
10911;DHT22;5508;49.150;11.030;2022-07-23T06:34:40;22.60;61.80
10911;DHT22;5508;49.150;11.030;2022-07-23T06:37:40;22.80;62.40
10911;DHT22;5508;49.150;11.030;2022-07-23T06:40:41;22.80;61.20
10911;DHT22;5508;49.150;11.030;2022-07-23T06:43:42;23.10;60.20
10911;DHT22;5508;49.150;11.030;2022-07-23T06:46:42;23.20;59.70
10911;DHT22;5508;49.150;11.030;2022-07-23T06:49:43;23.40;59.00
10911;DHT22;5508;49.150;11.030;2022-07-23T06:52:43;23.40;59.50
10911;DHT22;5508;49.150;11.030;2022-07-23T06:55:44;23.30;58.80
10911;DHT22;5508;49.150;11.030;2022-07-23T06:58:44;23.20;58.90
10911;DHT22;5508;49.150;11.030;2022-07-23T07:01:46;23.40;58.70
10911;DHT22;5508;49.150;11.030;2022-07-23T07:04:46;23.80;57.60
10911;DHT22;5508;49.150;11.030;2022-07-23T07:07:47;24.20;55.30
10911;DHT22;5508;49.150;11.030;2022-07-23T07:10:47;24.50;54.80
10911;DHT22;5508;49.150;11.030;2022-07-23T07:13:48;25.00;53.20
10911;DHT22;5508;49.150;11.030;2022-07-23T07:16:48;25.50;50.30
10911;DHT22;5508;49.150;11.030;2022-07-23T07:19:49;25.90;50.10
10911;DHT22;5508;49.150;11.030;2022-07-23T07:22:49;26.40;48.60
10911;DHT22;5508;49.150;11.030;2022-07-23T07:25:50;26.50;48.00
10911;DHT22;5508;49.150;11.030;2022-07-23T07:28:51;26.10;47.90
10911;DHT22;5508;49.150;11.030;2022-07-23T07:31:51;25.70;48.80
10911;DHT22;5508;49.150;11.030;2022-07-23T07:34:52;25.50;48.50
10911;DHT22;5508;49.150;11.030;2022-07-23T07:37:52;25.50;48.80
10911;DHT22;5508;49.150;11.030;2022-07-23T07:40:53;25.40;49.30
10911;DHT22;5508;49.150;11.030;2022-07-23T07:43:54;25.30;49.60
10911;DHT22;5508;49.150;11.030;2022-07-23T07:46:54;25.20;49.50
10911;DHT22;5508;49.150;11.030;2022-07-23T07:49:55;25.30;49.70
10911;DHT22;5508;49.150;11.030;2022-07-23T07:52:56;25.40;49.50
10911;DHT22;5508;49.150;11.030;2022-07-23T07:55:57;25.50;49.00
10911;DHT22;5508;49.150;11.030;2022-07-23T07:58:57;25.80;48.90
10911;DHT22;5508;49.150;11.030;2022-07-23T08:01:58;26.40;48.50
10911;DHT22;5508;49.150;11.030;2022-07-23T08:04:59;26.50;46.80
10911;DHT22;5508;49.150;11.030;2022-07-23T08:07:59;26.60;46.90
10911;DHT22;5508;49.150;11.030;2022-07-23T08:11:00;26.60;46.60
10911;DHT22;5508;49.150;11.030;2022-07-23T08:14:00;26.80;46.10
10911;DHT22;5508;49.150;11.030;2022-07-23T08:17:01;26.80;45.40
10911;DHT22;5508;49.150;11.030;2022-07-23T08:20:03;27.00;45.00
10911;DHT22;5508;49.150;11.030;2022-07-23T08:23:08;27.30;44.50
10911;DHT22;5508;49.150;11.030;2022-07-23T08:26:08;27.40;43.80
10911;DHT22;5508;49.150;11.030;2022-07-23T08:29:09;27.60;43.90
10911;DHT22;5508;49.150;11.030;2022-07-23T08:32:10;28.00;43.20
10911;DHT22;5508;49.150;11.030;2022-07-23T08:35:10;27.90;40.50
10911;DHT22;5508;49.150;11.030;2022-07-23T08:38:12;28.20;42.30
10911;DHT22;5508;49.150;11.030;2022-07-23T08:41:14;28.20;41.00
10911;DHT22;5508;49.150;11.030;2022-07-23T08:44:16;28.10;39.70
10911;DHT22;5508;49.150;11.030;2022-07-23T08:47:17;27.90;40.00
10911;DHT22;5508;49.150;11.030;2022-07-23T08:50:18;27.90;40.00
10911;DHT22;5508;49.150;11.030;2022-07-23T08:53:20;28.30;39.40
10911;DHT22;5508;49.150;11.030;2022-07-23T08:56:21;28.50;40.00
10911;DHT22;5508;49.150;11.030;2022-07-23T08:59:21;28.50;39.60
10911;DHT22;5508;49.150;11.030;2022-07-23T09:02:22;28.40;38.90
10911;DHT22;5508;49.150;11.030;2022-07-23T09:05:22;27.80;39.90
10911;DHT22;5508;49.150;11.030;2022-07-23T09:08:25;27.30;41.80
10911;DHT22;5508;49.150;11.030;2022-07-23T09:11:26;27.00;43.00
10911;DHT22;5508;49.150;11.030;2022-07-23T09:14:56;26.60;42.90
10911;DHT22;5508;49.150;11.030;2022-07-23T09:18:03;26.30;43.40
10911;DHT22;5508;49.150;11.030;2022-07-23T09:24:12;26.60;44.50
10911;DHT22;5508;49.150;11.030;2022-07-23T09:27:15;27.20;43.30
10911;DHT22;5508;49.150;11.030;2022-07-23T09:30:16;26.70;43.40
10911;DHT22;5508;49.150;11.030;2022-07-23T09:33:17;26.80;43.60
10911;DHT22;5508;49.150;11.030;2022-07-23T09:36:28;26.70;42.50
10911;DHT22;5508;49.150;11.030;2022-07-23T09:39:33;26.40;42.30
10911;DHT22;5508;49.150;11.030;2022-07-23T09:42:34;26.00;43.20
10911;DHT22;5508;49.150;11.030;2022-07-23T09:45:34;25.70;44.60
10911;DHT22;5508;49.150;11.030;2022-07-23T09:48:35;25.60;43.60
10911;DHT22;5508;49.150;11.030;2022-07-23T09:51:55;25.20;44.80
10911;DHT22;5508;49.150;11.030;2022-07-23T09:55:02;24.70;46.90
10911;DHT22;5508;49.150;11.030;2022-07-23T09:58:05;24.70;46.20
10911;DHT22;5508;49.150;11.030;2022-07-23T10:01:07;24.50;47.00
10911;DHT22;5508;49.150;11.030;2022-07-23T10:04:08;24.40;47.70
10911;DHT22;5508;49.150;11.030;2022-07-23T10:07:10;24.40;47.70
10911;DHT22;5508;49.150;11.030;2022-07-23T10:10:13;24.20;48.90
10911;DHT22;5508;49.150;11.030;2022-07-23T10:13:14;24.10;48.30
10911;DHT22;5508;49.150;11.030;2022-07-23T10:16:33;24.00;48.70
10911;DHT22;5508;49.150;11.030;2022-07-23T10:19:34;23.90;49.20
10911;DHT22;5508;49.150;11.030;2022-07-23T10:22:42;24.00;49.90
10911;DHT22;5508;49.150;11.030;2022-07-23T10:25:51;23.90;50.10
10911;DHT22;5508;49.150;11.030;2022-07-23T10:32:51;23.70;51.70
10911;DHT22;5508;49.150;11.030;2022-07-23T10:36:02;23.50;52.20
10911;DHT22;5508;49.150;11.030;2022-07-23T10:39:13;23.50;53.10
10911;DHT22;5508;49.150;11.030;2022-07-23T10:42:16;23.30;52.60
10911;DHT22;5508;49.150;11.030;2022-07-23T10:48:26;23.20;54.00
10911;DHT22;5508;49.150;11.030;2022-07-23T10:51:30;23.40;53.50
10911;DHT22;5508;49.150;11.030;2022-07-23T10:54:30;23.30;54.10
10911;DHT22;5508;49.150;11.030;2022-07-23T10:57:31;23.40;54.40
10911;DHT22;5508;49.150;11.030;2022-07-23T11:00:47;24.00;54.00
10911;DHT22;5508;49.150;11.030;2022-07-23T11:03:56;24.50;52.70
10911;DHT22;5508;49.150;11.030;2022-07-23T11:09:59;24.70;51.00
10911;DHT22;5508;49.150;11.030;2022-07-23T11:16:23;25.00;51.20
10911;DHT22;5508;49.150;11.030;2022-07-23T11:19:24;25.00;51.90
10911;DHT22;5508;49.150;11.030;2022-07-23T11:22:55;24.70;52.30
10911;DHT22;5508;49.150;11.030;2022-07-23T11:25:56;24.70;52.00
10911;DHT22;5508;49.150;11.030;2022-07-23T11:29:38;24.90;51.70
10911;DHT22;5508;49.150;11.030;2022-07-23T11:32:40;24.90;51.20
10911;DHT22;5508;49.150;11.030;2022-07-23T11:35:59;24.70;52.30
10911;DHT22;5508;49.150;11.030;2022-07-23T11:39:01;24.50;53.40
10911;DHT22;5508;49.150;11.030;2022-07-23T11:42:03;24.40;54.20
10911;DHT22;5508;49.150;11.030;2022-07-23T11:45:07;24.20;56.10
10911;DHT22;5508;49.150;11.030;2022-07-23T11:48:15;24.40;54.80
10911;DHT22;5508;49.150;11.030;2022-07-23T11:51:25;24.60;54.90
10911;DHT22;5508;49.150;11.030;2022-07-23T11:54:26;25.10;55.00
10911;DHT22;5508;49.150;11.030;2022-07-23T11:57:29;25.70;52.30
10911;DHT22;5508;49.150;11.030;2022-07-23T12:00:31;26.10;52.30
10911;DHT22;5508;49.150;11.030;2022-07-23T12:03:32;26.10;51.30
10911;DHT22;5508;49.150;11.030;2022-07-23T12:06:38;25.60;52.10
10911;DHT22;5508;49.150;11.030;2022-07-23T12:09:44;25.50;52.60
10911;DHT22;5508;49.150;11.030;2022-07-23T12:12:50;25.40;52.10
10911;DHT22;5508;49.150;11.030;2022-07-23T12:15:56;25.10;52.90
10911;DHT22;5508;49.150;11.030;2022-07-23T12:18:56;25.50;52.00
10911;DHT22;5508;49.150;11.030;2022-07-23T12:21:57;25.60;51.50
10911;DHT22;5508;49.150;11.030;2022-07-23T12:25:05;26.10;51.50
10911;DHT22;5508;49.150;11.030;2022-07-23T12:28:42;26.30;50.70
10911;DHT22;5508;49.150;11.030;2022-07-23T12:31:51;26.30;50.80
10911;DHT22;5508;49.150;11.030;2022-07-23T12:35:08;26.10;51.40
10911;DHT22;5508;49.150;11.030;2022-07-23T12:38:12;25.90;51.70
10911;DHT22;5508;49.150;11.030;2022-07-23T12:41:13;26.10;52.70
10911;DHT22;5508;49.150;11.030;2022-07-23T12:44:16;26.30;50.80
10911;DHT22;5508;49.150;11.030;2022-07-23T12:47:17;26.20;51.10
10911;DHT22;5508;49.150;11.030;2022-07-23T12:53:42;26.70;49.40
10911;DHT22;5508;49.150;11.030;2022-07-23T12:56:46;26.70;50.00
10911;DHT22;5508;49.150;11.030;2022-07-23T12:59:46;26.80;48.50
10911;DHT22;5508;49.150;11.030;2022-07-23T13:02:47;26.90;47.90
10911;DHT22;5508;49.150;11.030;2022-07-23T13:05:47;26.70;47.90
10911;DHT22;5508;49.150;11.030;2022-07-23T13:08:48;26.30;48.50
10911;DHT22;5508;49.150;11.030;2022-07-23T13:11:51;26.30;47.30
10911;DHT22;5508;49.150;11.030;2022-07-23T13:14:52;26.30;46.10
10911;DHT22;5508;49.150;11.030;2022-07-23T13:17:52;26.40;47.00
10911;DHT22;5508;49.150;11.030;2022-07-23T13:20:53;26.80;45.60
10911;DHT22;5508;49.150;11.030;2022-07-23T13:23:56;27.50;44.30
10911;DHT22;5508;49.150;11.030;2022-07-23T13:26:59;27.80;40.80
10911;DHT22;5508;49.150;11.030;2022-07-23T13:30:00;27.90;42.10
10911;DHT22;5508;49.150;11.030;2022-07-23T13:33:03;28.00;42.10
10911;DHT22;5508;49.150;11.030;2022-07-23T13:36:04;27.90;40.70
10911;DHT22;5508;49.150;11.030;2022-07-23T13:39:05;27.60;41.60
10911;DHT22;5508;49.150;11.030;2022-07-23T13:42:06;27.60;41.70
10911;DHT22;5508;49.150;11.030;2022-07-23T13:45:07;27.90;41.30
10911;DHT22;5508;49.150;11.030;2022-07-23T13:48:08;28.00;42.70
10911;DHT22;5508;49.150;11.030;2022-07-23T13:51:09;28.00;41.30
10911;DHT22;5508;49.150;11.030;2022-07-23T13:54:09;28.30;41.10
10911;DHT22;5508;49.150;11.030;2022-07-23T13:57:10;28.30;40.70
10911;DHT22;5508;49.150;11.030;2022-07-23T14:00:11;28.00;39.80
10911;DHT22;5508;49.150;11.030;2022-07-23T14:03:12;28.00;39.60
10911;DHT22;5508;49.150;11.030;2022-07-23T14:06:13;27.60;39.70
10911;DHT22;5508;49.150;11.030;2022-07-23T14:09:13;27.60;40.30
10911;DHT22;5508;49.150;11.030;2022-07-23T14:12:14;27.80;39.30
10911;DHT22;5508;49.150;11.030;2022-07-23T14:15:15;28.10;40.30
10911;DHT22;5508;49.150;11.030;2022-07-23T14:18:16;28.00;38.70
10911;DHT22;5508;49.150;11.030;2022-07-23T14:21:17;28.00;39.20
10911;DHT22;5508;49.150;11.030;2022-07-23T14:24:20;28.00;38.70
10911;DHT22;5508;49.150;11.030;2022-07-23T14:27:21;28.10;36.50
10911;DHT22;5508;49.150;11.030;2022-07-23T14:30:22;28.30;36.10
10911;DHT22;5508;49.150;11.030;2022-07-23T14:33:24;28.00;36.40
10911;DHT22;5508;49.150;11.030;2022-07-23T14:36:25;28.20;37.20
10911;DHT22;5508;49.150;11.030;2022-07-23T14:39:26;28.10;35.90
10911;DHT22;5508;49.150;11.030;2022-07-23T14:42:27;28.30;35.30
10911;DHT22;5508;49.150;11.030;2022-07-23T14:45:27;28.30;35.40
10911;DHT22;5508;49.150;11.030;2022-07-23T14:48:30;28.50;35.20
10911;DHT22;5508;49.150;11.030;2022-07-23T14:51:30;28.20;35.20
10911;DHT22;5508;49.150;11.030;2022-07-23T14:54:32;28.10;36.00
10911;DHT22;5508;49.150;11.030;2022-07-23T14:57:33;28.30;35.80
10911;DHT22;5508;49.150;11.030;2022-07-23T15:00:34;28.50;35.40
10911;DHT22;5508;49.150;11.030;2022-07-23T15:03:34;28.30;36.20
10911;DHT22;5508;49.150;11.030;2022-07-23T15:06:35;27.90;37.00
10911;DHT22;5508;49.150;11.030;2022-07-23T15:09:35;27.70;37.90
10911;DHT22;5508;49.150;11.030;2022-07-23T15:12:36;27.80;37.60
10911;DHT22;5508;49.150;11.030;2022-07-23T15:15:36;28.00;37.50
10911;DHT22;5508;49.150;11.030;2022-07-23T15:18:37;28.20;37.50
10911;DHT22;5508;49.150;11.030;2022-07-23T15:21:38;28.60;36.40
10911;DHT22;5508;49.150;11.030;2022-07-23T15:24:38;28.70;36.30
10911;DHT22;5508;49.150;11.030;2022-07-23T15:27:39;28.60;37.00
10911;DHT22;5508;49.150;11.030;2022-07-23T15:30:40;28.50;37.60
10911;DHT22;5508;49.150;11.030;2022-07-23T15:33:40;28.60;37.70
10911;DHT22;5508;49.150;11.030;2022-07-23T15:36:41;28.90;36.90
10911;DHT22;5508;49.150;11.030;2022-07-23T15:39:42;28.90;37.20
10911;DHT22;5508;49.150;11.030;2022-07-23T15:42:43;29.00;37.90
10911;DHT22;5508;49.150;11.030;2022-07-23T15:45:43;28.80;38.00
10911;DHT22;5508;49.150;11.030;2022-07-23T15:48:44;28.50;38.30
10911;DHT22;5508;49.150;11.030;2022-07-23T15:51:45;28.50;39.10
10911;DHT22;5508;49.150;11.030;2022-07-23T15:54:46;28.60;38.00
10911;DHT22;5508;49.150;11.030;2022-07-23T15:57:46;28.60;38.40
10911;DHT22;5508;49.150;11.030;2022-07-23T16:00:47;28.40;39.70
10911;DHT22;5508;49.150;11.030;2022-07-23T16:03:47;28.30;40.20
10911;DHT22;5508;49.150;11.030;2022-07-23T16:06:48;28.20;41.10
10911;DHT22;5508;49.150;11.030;2022-07-23T16:09:49;27.60;41.60
10911;DHT22;5508;49.150;11.030;2022-07-23T16:12:49;27.20;42.80
10911;DHT22;5508;49.150;11.030;2022-07-23T16:15:50;26.90;43.20
10911;DHT22;5508;49.150;11.030;2022-07-23T16:18:50;26.90;43.90
10911;DHT22;5508;49.150;11.030;2022-07-23T16:21:51;26.90;43.20
10911;DHT22;5508;49.150;11.030;2022-07-23T16:24:52;26.90;42.80
10911;DHT22;5508;49.150;11.030;2022-07-23T16:27:53;26.80;43.30
10911;DHT22;5508;49.150;11.030;2022-07-23T16:30:53;26.70;43.50
10911;DHT22;5508;49.150;11.030;2022-07-23T16:33:54;26.80;43.80
10911;DHT22;5508;49.150;11.030;2022-07-23T16:36:55;27.10;43.30
10911;DHT22;5508;49.150;11.030;2022-07-23T16:39:56;27.50;42.50
10911;DHT22;5508;49.150;11.030;2022-07-23T16:42:59;27.70;41.50
10911;DHT22;5508;49.150;11.030;2022-07-23T16:46:00;27.90;41.40
10911;DHT22;5508;49.150;11.030;2022-07-23T16:49:01;27.50;41.40
10911;DHT22;5508;49.150;11.030;2022-07-23T16:52:03;27.30;41.60
10911;DHT22;5508;49.150;11.030;2022-07-23T16:55:05;26.90;41.60
10911;DHT22;5508;49.150;11.030;2022-07-23T16:58:06;26.80;41.50
10911;DHT22;5508;49.150;11.030;2022-07-23T17:01:06;26.60;42.70
10911;DHT22;5508;49.150;11.030;2022-07-23T17:04:07;26.40;43.40
10911;DHT22;5508;49.150;11.030;2022-07-23T17:07:08;26.60;43.40
10911;DHT22;5508;49.150;11.030;2022-07-23T17:10:09;26.80;42.20
10911;DHT22;5508;49.150;11.030;2022-07-23T17:13:10;26.80;42.60
10911;DHT22;5508;49.150;11.030;2022-07-23T17:16:11;26.80;41.70
10911;DHT22;5508;49.150;11.030;2022-07-23T17:19:12;26.70;42.50
10911;DHT22;5508;49.150;11.030;2022-07-23T17:22:12;26.60;42.70
10911;DHT22;5508;49.150;11.030;2022-07-23T17:25:13;26.50;42.70
10911;DHT22;5508;49.150;11.030;2022-07-23T17:28:14;26.20;43.10
10911;DHT22;5508;49.150;11.030;2022-07-23T17:31:14;26.10;43.70
10911;DHT22;5508;49.150;11.030;2022-07-23T17:34:15;25.90;43.60
10911;DHT22;5508;49.150;11.030;2022-07-23T17:37:15;25.80;44.40
10911;DHT22;5508;49.150;11.030;2022-07-23T17:40:16;25.60;44.40
10911;DHT22;5508;49.150;11.030;2022-07-23T17:43:17;25.60;44.30
10911;DHT22;5508;49.150;11.030;2022-07-23T17:46:17;25.50;45.30
10911;DHT22;5508;49.150;11.030;2022-07-23T17:49:18;25.40;46.10
10911;DHT22;5508;49.150;11.030;2022-07-23T17:52:19;25.40;46.10
10911;DHT22;5508;49.150;11.030;2022-07-23T17:55:21;25.30;46.50
10911;DHT22;5508;49.150;11.030;2022-07-23T17:58:22;25.30;46.70
10911;DHT22;5508;49.150;11.030;2022-07-23T18:01:23;25.20;46.70
10911;DHT22;5508;49.150;11.030;2022-07-23T18:04:23;25.20;47.50
10911;DHT22;5508;49.150;11.030;2022-07-23T18:07:24;25.20;47.30
10911;DHT22;5508;49.150;11.030;2022-07-23T18:10:25;25.10;47.10
10911;DHT22;5508;49.150;11.030;2022-07-23T18:13:26;25.00;47.30
10911;DHT22;5508;49.150;11.030;2022-07-23T18:16:26;24.90;47.00
10911;DHT22;5508;49.150;11.030;2022-07-23T18:19:27;24.80;46.90
10911;DHT22;5508;49.150;11.030;2022-07-23T18:22:27;24.80;47.80
10911;DHT22;5508;49.150;11.030;2022-07-23T18:25:28;24.70;48.20
10911;DHT22;5508;49.150;11.030;2022-07-23T18:28:28;24.60;48.10
10911;DHT22;5508;49.150;11.030;2022-07-23T18:31:29;24.50;49.30
10911;DHT22;5508;49.150;11.030;2022-07-23T18:34:29;24.40;48.40
10911;DHT22;5508;49.150;11.030;2022-07-23T18:37:30;24.30;49.00
10911;DHT22;5508;49.150;11.030;2022-07-23T18:40:31;24.20;48.80
10911;DHT22;5508;49.150;11.030;2022-07-23T18:43:32;24.10;50.10
10911;DHT22;5508;49.150;11.030;2022-07-23T18:46:33;24.00;50.00
10911;DHT22;5508;49.150;11.030;2022-07-23T18:49:34;23.90;50.10
10911;DHT22;5508;49.150;11.030;2022-07-23T18:52:34;23.70;50.90
10911;DHT22;5508;49.150;11.030;2022-07-23T18:55:36;23.60;51.60
10911;DHT22;5508;49.150;11.030;2022-07-23T18:58:38;23.50;51.10
10911;DHT22;5508;49.150;11.030;2022-07-23T19:01:39;23.40;52.40
10911;DHT22;5508;49.150;11.030;2022-07-23T19:04:39;23.30;53.20
10911;DHT22;5508;49.150;11.030;2022-07-23T19:07:40;23.10;53.90
10911;DHT22;5508;49.150;11.030;2022-07-23T19:10:40;23.00;53.60
10911;DHT22;5508;49.150;11.030;2022-07-23T19:13:41;22.80;54.40
10911;DHT22;5508;49.150;11.030;2022-07-23T19:16:41;22.70;54.90
10911;DHT22;5508;49.150;11.030;2022-07-23T19:19:42;22.60;55.50
10911;DHT22;5508;49.150;11.030;2022-07-23T19:22:43;22.40;56.10
10911;DHT22;5508;49.150;11.030;2022-07-23T19:25:43;22.30;56.30